Time;durP1;ratioP1;P1;durP2;ratioP2;P2;SDS_P1;SDS_P2;PMS_P1;PMS_P2;Temp;Humidity;BMP_temperature;BMP_pressure;BME280_temperature;BME280_humidity;BME280_pressure;Samples;Min_cycle;Max_cycle;Signal;HPM_P1;HPM_P2
2021/09/10 00:01:16;;;;;;;8.05;5.93;;;15.70;89.10;;;;;;4947984;28;20095;-68
2021/09/10 00:03:42;;;;;;;8.85;5.78;;;15.70;89.30;;;;;;4964543;28;20067;-70
2021/09/10 00:06:08;;;;;;;6.53;5.47;;;15.70;89.00;;;;;;4946469;28;20456;-68
2021/09/10 00:08:33;;;;;;;7.50;5.72;;;15.60;89.20;;;;;;4946798;28;20066;-68
2021/09/10 00:11:00;;;;;;;8.70;5.15;;;15.60;89.80;;;;;;4951100;28;20019;-69
2021/09/10 00:13:26;;;;;;;7.95;5.82;;;15.60;89.60;;;;;;4949180;28;20086;-68
2021/09/10 00:15:51;;;;;;;6.47;5.38;;;15.50;89.40;;;;;;4942654;28;20085;-68
2021/09/10 00:18:17;;;;;;;6.93;5.38;;;15.50;89.50;;;;;;4953237;28;20039;-69
2021/09/10 00:20:43;;;;;;;9.07;5.47;;;15.50;89.00;;;;;;4953351;29;20530;-68
2021/09/10 00:23:08;;;;;;;9.90;5.72;;;15.40;89.10;;;;;;4950094;28;20055;-68
2021/09/10 00:25:34;;;;;;;8.23;5.80;;;15.40;89.00;;;;;;4964612;28;20022;-68
2021/09/10 00:27:59;;;;;;;7.30;5.13;;;15.20;89.40;;;;;;4946333;28;20031;-68
2021/09/10 00:30:25;;;;;;;6.25;5.20;;;15.20;89.40;;;;;;4944410;28;20023;-68
2021/09/10 00:32:50;;;;;;;8.50;5.57;;;15.10;89.40;;;;;;4949711;28;20055;-68
2021/09/10 00:35:16;;;;;;;6.53;5.55;;;15.10;90.30;;;;;;4954472;28;20031;-69
2021/09/10 00:37:42;;;;;;;11.73;6.07;;;15.10;90.40;;;;;;4949854;28;20039;-68
2021/09/10 00:40:08;;;;;;;7.70;5.22;;;15.00;90.50;;;;;;4950809;28;20427;-68
2021/09/10 00:42:34;;;;;;;6.53;4.78;;;15.00;89.80;;;;;;4953628;28;20035;-69
2021/09/10 00:45:00;;;;;;;7.30;5.22;;;14.90;89.40;;;;;;4952583;28;20035;-68
2021/09/10 00:47:26;;;;;;;5.65;4.22;;;14.90;89.60;;;;;;4942669;28;20059;-68
2021/09/10 00:49:52;;;;;;;5.82;5.07;;;14.90;89.50;;;;;;4968786;28;20031;-69
2021/09/10 00:52:18;;;;;;;7.70;5.30;;;14.80;90.00;;;;;;4951823;28;20027;-68
2021/09/10 00:54:44;;;;;;;6.10;4.93;;;14.80;90.30;;;;;;4955124;29;20039;-68
2021/09/10 00:57:10;;;;;;;6.85;5.13;;;14.80;89.80;;;;;;4950627;28;20028;-68
2021/09/10 00:59:35;;;;;;;7.15;5.13;;;14.70;89.70;;;;;;4945351;28;20066;-68
2021/09/10 01:02:01;;;;;;;6.85;4.88;;;14.70;89.60;;;;;;4948182;28;20042;-68
2021/09/10 01:04:28;;;;;;;9.73;5.30;;;14.70;90.00;;;;;;4948180;28;20027;-67
2021/09/10 01:06:55;;;;;;;7.85;6.15;;;14.60;90.30;;;;;;4951275;28;20131;-68
2021/09/10 01:09:22;;;;;;;9.50;6.70;;;14.50;90.90;;;;;;4944099;28;20102;-68
2021/09/10 01:11:50;;;;;;;7.63;5.82;;;14.40;92.00;;;;;;4952721;28;20512;-68
2021/09/10 01:14:18;;;;;;;10.68;6.20;;;14.50;91.50;;;;;;4945021;29;20035;-68
2021/09/10 01:16:47;;;;;;;7.38;6.15;;;14.60;91.20;;;;;;4953136;28;20050;-69
2021/09/10 01:19:24;;;;;;;8.38;5.30;;;14.60;91.30;;;;;;4947830;29;20023;-68
2021/09/10 01:21:52;;;;;;;7.43;5.65;;;14.60;91.00;;;;;;4949783;28;20046;-68
2021/09/10 01:24:24;;;;;;;6.53;5.18;;;14.60;90.80;;;;;;4951939;28;20058;-68
2021/09/10 01:26:50;;;;;;;6.95;5.47;;;14.60;90.70;;;;;;4952872;28;20031;-70
2021/09/10 01:29:16;;;;;;;6.32;4.80;;;14.60;90.60;;;;;;4949703;28;20495;-68
2021/09/10 01:31:42;;;;;;;6.35;5.53;;;14.60;90.60;;;;;;4965161;28;20036;-68
2021/09/10 01:34:07;;;;;;;8.00;5.93;;;14.50;90.70;;;;;;4946844;28;20407;-68
2021/09/10 01:36:33;;;;;;;7.43;5.60;;;14.50;90.70;;;;;;4953199;28;20522;-68
2021/09/10 01:38:58;;;;;;;7.55;5.50;;;14.50;90.80;;;;;;4949205;28;20098;-68
2021/09/10 01:41:24;;;;;;;6.95;5.40;;;14.50;90.70;;;;;;4953781;28;20175;-68
2021/09/10 01:43:50;;;;;;;6.55;5.20;;;14.40;90.70;;;;;;4951897;28;20043;-69
2021/09/10 01:46:16;;;;;;;8.30;5.90;;;14.40;90.60;;;;;;4953274;28;20051;-68
2021/09/10 01:48:41;;;;;;;7.22;5.55;;;14.50;90.40;;;;;;4948634;28;20027;-68
2021/09/10 01:51:07;;;;;;;8.13;5.40;;;14.50;90.40;;;;;;4953077;29;20030;-69
2021/09/10 01:53:32;;;;;;;7.28;6.15;;;14.50;90.70;;;;;;4951071;28;20034;-68
2021/09/10 01:55:58;;;;;;;8.18;6.03;;;14.40;91.20;;;;;;4953408;28;20432;-68
2021/09/10 01:58:24;;;;;;;9.70;6.22;;;14.50;91.20;;;;;;4952396;28;20034;-68
2021/09/10 02:00:50;;;;;;;8.15;6.28;;;14.40;92.40;;;;;;4951183;28;20107;-68
2021/09/10 02:03:15;;;;;;;8.30;5.97;;;14.40;92.10;;;;;;4945636;28;20074;-68
2021/09/10 02:05:41;;;;;;;9.25;6.25;;;14.40;92.20;;;;;;4946591;28;20058;-68
2021/09/10 02:08:07;;;;;;;7.32;5.57;;;14.40;91.90;;;;;;4959630;28;20051;-69
2021/09/10 02:10:32;;;;;;;7.25;4.60;;;14.40;91.40;;;;;;4948846;28;20070;-68
2021/09/10 02:12:58;;;;;;;8.48;5.18;;;14.30;91.00;;;;;;4957817;28;20794;-68
2021/09/10 02:15:23;;;;;;;7.88;5.10;;;14.30;90.90;;;;;;4958737;28;20039;-68
2021/09/10 02:17:49;;;;;;;6.07;4.55;;;14.30;91.10;;;;;;4953278;28;20035;-68
2021/09/10 02:20:15;;;;;;;6.85;4.88;;;14.20;90.70;;;;;;4952666;29;20027;-68
2021/09/10 02:22:40;;;;;;;6.03;5.30;;;14.20;90.70;;;;;;4958133;28;20051;-68
2021/09/10 02:25:07;;;;;;;8.93;5.13;;;14.20;90.70;;;;;;4952245;29;20528;-68
2021/09/10 02:27:32;;;;;;;7.43;5.75;;;14.20;90.60;;;;;;4946223;28;20562;-68
2021/09/10 02:29:58;;;;;;;6.63;5.13;;;14.30;90.60;;;;;;4949498;28;20093;-68
2021/09/10 02:32:24;;;;;;;7.35;5.50;;;14.30;90.80;;;;;;4947887;28;20209;-68
2021/09/10 02:34:49;;;;;;;7.95;5.15;;;14.30;91.10;;;;;;4949541;28;20446;-68
2021/09/10 02:37:15;;;;;;;7.22;5.30;;;14.30;91.00;;;;;;4949200;28;20043;-68
2021/09/10 02:39:41;;;;;;;7.63;5.68;;;14.30;91.30;;;;;;4952474;28;20041;-68
2021/09/10 02:42:06;;;;;;;7.78;5.68;;;14.30;91.20;;;;;;4950804;28;20106;-68
2021/09/10 02:44:32;;;;;;;8.68;5.95;;;14.30;91.50;;;;;;4967206;28;20094;-68
2021/09/10 02:46:58;;;;;;;7.25;4.97;;;14.30;91.40;;;;;;4946515;28;20035;-68
2021/09/10 02:49:25;;;;;;;7.47;5.82;;;14.30;91.40;;;;;;4951563;28;20027;-68
2021/09/10 02:51:50;;;;;;;7.75;5.80;;;14.30;91.30;;;;;;4945050;28;20500;-68
2021/09/10 02:54:16;;;;;;;8.38;6.00;;;14.30;91.60;;;;;;4947349;28;20042;-68
2021/09/10 02:56:42;;;;;;;7.80;5.40;;;14.30;91.90;;;;;;4947584;28;20039;-70
2021/09/10 02:59:07;;;;;;;10.32;6.78;;;14.40;91.80;;;;;;4950875;28;20023;-68
2021/09/10 03:01:33;;;;;;;9.10;6.68;;;14.30;91.90;;;;;;4948956;28;20099;-69
2021/09/10 03:03:58;;;;;;;12.32;7.50;;;14.30;92.00;;;;;;4943606;28;20086;-68
2021/09/10 03:06:24;;;;;;;10.82;6.53;;;14.30;92.30;;;;;;4944861;28;20038;-68
2021/09/10 03:08:50;;;;;;;9.35;6.50;;;14.40;92.40;;;;;;4950893;29;20031;-68
2021/09/10 03:11:15;;;;;;;9.57;6.50;;;14.40;92.30;;;;;;4950579;28;20024;-68
2021/09/10 03:13:41;;;;;;;7.40;5.82;;;14.30;92.80;;;;;;4964909;28;20082;-68
2021/09/10 03:16:07;;;;;;;9.55;6.28;;;14.40;92.30;;;;;;4950001;28;20023;-69
2021/09/10 03:18:32;;;;;;;7.18;5.85;;;14.30;92.30;;;;;;4948921;28;20035;-68
2021/09/10 03:20:58;;;;;;;8.07;5.85;;;14.30;92.10;;;;;;4949833;28;20063;-68
2021/09/10 03:23:24;;;;;;;8.55;6.13;;;14.40;92.00;;;;;;4946359;28;20457;-68
2021/09/10 03:25:50;;;;;;;10.13;6.00;;;14.40;92.30;;;;;;4951463;28;20031;-68
2021/09/10 03:28:15;;;;;;;8.40;5.57;;;14.40;91.90;;;;;;4950685;28;20027;-68
2021/09/10 03:30:41;;;;;;;8.52;6.07;;;14.40;91.80;;;;;;4943760;28;20035;-68
2021/09/10 03:33:06;;;;;;;7.45;5.57;;;14.40;91.70;;;;;;4946577;28;20042;-68
2021/09/10 03:35:32;;;;;;;6.88;5.53;;;14.40;91.50;;;;;;4942241;28;20082;-68
2021/09/10 03:37:58;;;;;;;7.40;5.55;;;14.30;91.40;;;;;;4944675;28;20030;-68
2021/09/10 03:40:25;;;;;;;8.95;5.28;;;14.30;91.20;;;;;;4958842;28;20062;-68
2021/09/10 03:42:51;;;;;;;7.95;5.38;;;14.30;91.30;;;;;;4939388;28;20019;-68
2021/09/10 03:45:16;;;;;;;9.70;6.50;;;14.30;91.40;;;;;;4950363;28;20031;-68
2021/09/10 03:47:42;;;;;;;7.85;5.45;;;14.20;91.70;;;;;;4948193;28;20031;-68
2021/09/10 03:50:08;;;;;;;8.18;6.00;;;14.20;91.60;;;;;;4947538;28;20460;-68
2021/09/10 03:52:34;;;;;;;8.35;5.47;;;14.20;91.50;;;;;;4943390;28;20586;-68
2021/09/10 03:54:59;;;;;;;8.02;5.63;;;14.10;91.50;;;;;;4957252;28;20067;-68
2021/09/10 03:57:25;;;;;;;9.23;5.63;;;14.10;91.60;;;;;;4947156;28;20035;-68
2021/09/10 03:59:51;;;;;;;10.57;5.95;;;14.10;91.50;;;;;;4948361;28;20124;-68
2021/09/10 04:02:16;;;;;;;8.73;5.78;;;14.10;91.50;;;;;;4948951;28;20031;-68
2021/09/10 04:04:42;;;;;;;8.60;5.55;;;14.10;91.60;;;;;;4947976;28;20077;-68
2021/09/10 04:07:09;;;;;;;7.68;5.35;;;14.00;91.70;;;;;;4946007;28;20073;-67
2021/09/10 04:09:35;;;;;;;11.63;5.53;;;14.00;91.70;;;;;;4950272;28;20027;-67
2021/09/10 04:12:00;;;;;;;6.82;5.70;;;14.00;91.80;;;;;;4946558;28;20031;-68
2021/09/10 04:14:26;;;;;;;6.32;5.05;;;14.00;91.90;;;;;;4950416;28;20066;-68
2021/09/10 04:16:52;;;;;;;8.02;5.75;;;14.00;91.90;;;;;;4947091;28;20451;-68
2021/09/10 04:19:17;;;;;;;10.85;6.55;;;13.90;92.00;;;;;;4950537;28;20038;-67
2021/09/10 04:21:43;;;;;;;9.88;6.20;;;14.00;92.30;;;;;;4949409;28;20481;-68
2021/09/10 04:24:09;;;;;;;7.68;5.78;;;14.00;92.10;;;;;;4947449;28;20091;-67
2021/09/10 04:26:35;;;;;;;10.48;6.00;;;13.90;92.20;;;;;;4962672;28;20053;-67
2021/09/10 04:29:00;;;;;;;12.27;6.03;;;13.90;92.20;;;;;;4947247;28;20031;-67
2021/09/10 04:31:26;;;;;;;7.43;5.60;;;14.00;92.00;;;;;;4946374;28;20027;-68
2021/09/10 04:33:52;;;;;;;9.80;6.28;;;13.90;92.10;;;;;;4949129;28;20031;-68
2021/09/10 04:36:17;;;;;;;8.93;6.13;;;13.90;92.20;;;;;;4948289;28;20094;-67
2021/09/10 04:38:43;;;;;;;8.38;5.93;;;14.00;91.90;;;;;;4943002;28;20568;-67
2021/09/10 04:41:09;;;;;;;7.90;5.80;;;14.00;92.00;;;;;;4949065;28;20077;-67
2021/09/10 04:43:34;;;;;;;8.30;6.28;;;14.00;92.60;;;;;;4964936;28;20054;-67
2021/09/10 04:46:00;;;;;;;9.18;6.22;;;13.90;92.70;;;;;;4960187;28;20030;-67
2021/09/10 04:48:26;;;;;;;8.68;6.18;;;13.90;92.90;;;;;;4950363;28;20075;-68
2021/09/10 04:50:51;;;;;;;9.45;6.22;;;13.90;92.90;;;;;;4939224;29;20520;-67
2021/09/10 04:53:17;;;;;;;8.85;5.47;;;14.00;92.70;;;;;;4951025;29;20800;-68
2021/09/10 04:55:42;;;;;;;9.80;6.10;;;14.00;92.40;;;;;;4946838;28;20031;-67
2021/09/10 04:58:08;;;;;;;9.18;6.35;;;14.00;92.40;;;;;;4953213;28;20031;-67
2021/09/10 05:00:33;;;;;;;8.45;5.50;;;14.00;92.20;;;;;;4947874;28;20075;-68
2021/09/10 05:03:00;;;;;;;7.43;5.68;;;13.90;92.10;;;;;;4949305;28;20039;-67
2021/09/10 05:05:25;;;;;;;7.45;5.78;;;14.00;92.00;;;;;;4948507;28;20528;-68
2021/09/10 05:07:51;;;;;;;7.97;5.38;;;13.90;92.00;;;;;;4947801;28;20042;-67
2021/09/10 05:10:17;;;;;;;7.32;5.55;;;14.00;92.30;;;;;;4951935;28;20212;-67
2021/09/10 05:12:42;;;;;;;10.00;6.28;;;14.00;92.00;;;;;;4953398;28;20030;-67
2021/09/10 05:15:08;;;;;;;6.10;5.28;;;14.00;92.00;;;;;;4952565;28;20110;-68
2021/09/10 05:17:34;;;;;;;8.25;5.63;;;14.00;91.80;;;;;;4952151;28;20070;-68
2021/09/10 05:20:00;;;;;;;9.13;5.93;;;14.00;91.80;;;;;;4951543;29;20711;-67
2021/09/10 05:22:26;;;;;;;9.68;6.05;;;14.00;91.80;;;;;;4950135;28;20050;-67
2021/09/10 05:24:52;;;;;;;7.88;6.00;;;14.10;91.80;;;;;;4955972;28;20573;-68
2021/09/10 05:27:18;;;;;;;6.97;5.07;;;14.10;91.80;;;;;;4952467;28;20147;-67
2021/09/10 05:29:43;;;;;;;4.63;4.07;;;14.00;91.60;;;;;;4951100;28;20495;-67
2021/09/10 05:32:09;;;;;;;10.88;5.80;;;14.00;91.40;;;;;;4955961;28;20046;-67
2021/09/10 05:34:35;;;;;;;7.90;6.32;;;14.00;92.00;;;;;;4942888;28;20139;-67
2021/09/10 05:37:00;;;;;;;8.50;5.82;;;14.10;92.50;;;;;;4942894;28;20110;-67
2021/09/10 05:39:26;;;;;;;7.97;5.95;;;14.10;92.00;;;;;;4943159;28;20138;-67
2021/09/10 05:41:51;;;;;;;7.35;5.90;;;14.20;92.20;;;;;;4951088;28;20054;-67
2021/09/10 05:44:18;;;;;;;7.68;6.10;;;14.20;92.30;;;;;;4967611;28;20059;-68
2021/09/10 05:46:44;;;;;;;9.43;6.13;;;14.30;92.10;;;;;;4953317;28;20118;-67
2021/09/10 05:49:10;;;;;;;7.07;5.75;;;14.30;92.50;;;;;;4947168;28;20150;-67
2021/09/10 05:51:36;;;;;;;8.32;6.47;;;14.30;92.70;;;;;;4943235;28;20042;-67
2021/09/10 05:54:02;;;;;;;8.38;5.95;;;14.30;92.80;;;;;;4959869;28;20031;-67
2021/09/10 05:56:28;;;;;;;8.32;5.78;;;14.40;92.70;;;;;;4966314;28;20117;-67
2021/09/10 05:58:53;;;;;;;8.32;6.10;;;14.40;92.80;;;;;;4953849;29;20058;-67
2021/09/10 06:01:19;;;;;;;7.28;5.55;;;14.50;93.30;;;;;;4954586;28;20063;-67
2021/09/10 06:03:44;;;;;;;9.60;6.57;;;14.50;93.10;;;;;;4947281;28;20043;-67
2021/09/10 06:06:10;;;;;;;9.85;6.80;;;14.50;93.00;;;;;;4948814;29;20027;-67
2021/09/10 06:08:37;;;;;;;9.50;7.15;;;14.60;92.80;;;;;;4946963;28;20452;-67
2021/09/10 06:11:04;;;;;;;10.48;6.60;;;14.60;92.90;;;;;;4955326;28;20031;-67
2021/09/10 06:13:29;;;;;;;15.30;7.68;;;14.60;92.60;;;;;;4955138;28;20080;-67
2021/09/10 06:15:55;;;;;;;9.85;7.13;;;14.70;92.60;;;;;;4954839;28;20106;-67
2021/09/10 06:18:20;;;;;;;8.85;6.20;;;14.70;92.90;;;;;;4952747;28;20077;-67
2021/09/10 06:20:46;;;;;;;8.52;6.45;;;14.80;92.90;;;;;;4950637;28;20023;-66
2021/09/10 06:23:12;;;;;;;11.23;6.80;;;14.80;92.90;;;;;;4950087;28;20159;-67
2021/09/10 06:25:37;;;;;;;7.57;6.28;;;14.90;92.70;;;;;;4953012;28;20031;-66
2021/09/10 06:28:03;;;;;;;11.82;6.90;;;15.00;93.00;;;;;;4951699;28;20102;-67
2021/09/10 06:30:29;;;;;;;11.63;6.50;;;15.00;92.60;;;;;;4951200;28;20027;-66
2021/09/10 06:32:54;;;;;;;10.38;6.75;;;15.00;92.30;;;;;;4952773;28;20035;-67
2021/09/10 06:35:20;;;;;;;8.82;6.63;;;15.10;92.70;;;;;;4954439;28;20031;-68
2021/09/10 06:37:46;;;;;;;12.73;7.20;;;15.20;92.70;;;;;;4951825;28;20027;-67
2021/09/10 06:40:12;;;;;;;10.77;6.90;;;15.30;92.40;;;;;;4949187;28;20039;-67
2021/09/10 06:42:39;;;;;;;9.07;7.28;;;15.30;92.40;;;;;;4967088;28;20067;-67
2021/09/10 06:45:06;;;;;;;10.18;7.32;;;15.40;92.70;;;;;;4951306;28;20697;-68
2021/09/10 06:47:31;;;;;;;12.98;7.50;;;15.50;93.10;;;;;;4954932;28;20031;-67
2021/09/10 06:49:57;;;;;;;14.48;7.53;;;15.60;92.90;;;;;;4951375;28;20368;-67
2021/09/10 06:52:22;;;;;;;14.68;7.90;;;15.60;93.30;;;;;;4953487;28;20035;-67
2021/09/10 06:54:48;;;;;;;11.93;7.68;;;15.70;92.40;;;;;;4951941;28;20027;-67
2021/09/10 06:57:14;;;;;;;10.60;7.57;;;15.70;91.90;;;;;;4951152;28;20035;-67
2021/09/10 06:59:39;;;;;;;10.77;8.02;;;15.80;92.00;;;;;;4951208;28;20031;-67
2021/09/10 07:02:05;;;;;;;14.48;8.00;;;15.90;92.20;;;;;;4952764;28;20035;-67
2021/09/10 07:04:31;;;;;;;12.43;8.73;;;16.00;92.10;;;;;;4947982;29;20036;-67
2021/09/10 07:06:57;;;;;;;11.73;7.72;;;16.00;91.80;;;;;;4952790;28;20023;-68
2021/09/10 07:09:22;;;;;;;12.32;7.93;;;16.10;91.70;;;;;;4947801;28;20465;-67
2021/09/10 07:11:48;;;;;;;12.13;7.72;;;16.20;91.80;;;;;;4952892;28;20078;-68
2021/09/10 07:14:16;;;;;;;11.73;7.95;;;16.30;91.30;;;;;;4949208;28;20027;-67
2021/09/10 07:16:41;;;;;;;11.57;7.85;;;16.30;91.30;;;;;;4953674;28;20036;-68
2021/09/10 07:19:07;;;;;;;12.90;8.32;;;16.40;90.90;;;;;;4950413;28;20667;-69
2021/09/10 07:21:33;;;;;;;11.82;7.45;;;16.40;90.80;;;;;;4974086;28;20134;-67
2021/09/10 07:23:58;;;;;;;12.27;7.85;;;16.50;90.60;;;;;;4951870;28;20062;-68
2021/09/10 07:26:25;;;;;;;12.07;7.90;;;16.60;90.00;;;;;;4953783;28;20492;-68
2021/09/10 07:28:51;;;;;;;12.52;7.97;;;16.70;90.10;;;;;;4951550;28;20042;-68
2021/09/10 07:31:16;;;;;;;12.23;8.15;;;16.70;90.00;;;;;;4952830;28;20031;-67
2021/09/10 07:33:43;;;;;;;12.13;7.70;;;16.80;90.10;;;;;;4966385;28;20078;-67
2021/09/10 07:36:09;;;;;;;10.30;7.80;;;17.00;89.70;;;;;;4944060;29;20023;-68
2021/09/10 07:38:36;;;;;;;11.50;8.15;;;17.10;89.90;;;;;;4953867;28;20031;-68
2021/09/10 07:41:03;;;;;;;14.35;9.15;;;17.10;89.80;;;;;;4952555;28;20049;-68
2021/09/10 07:43:29;;;;;;;12.23;8.45;;;17.30;90.00;;;;;;4952659;28;20038;-67
2021/09/10 07:45:55;;;;;;;12.00;7.90;;;17.40;89.10;;;;;;4949904;28;20046;-68
2021/09/10 07:48:21;;;;;;;12.88;8.48;;;17.60;88.50;;;;;;4951425;29;20050;-68
2021/09/10 07:50:47;;;;;;;11.00;7.95;;;17.70;88.50;;;;;;4949860;28;20062;-67
2021/09/10 07:53:12;;;;;;;10.30;7.55;;;17.80;88.30;;;;;;4958809;28;20038;-68
2021/09/10 07:55:38;;;;;;;8.85;7.05;;;17.90;87.50;;;;;;4952889;28;20111;-68
2021/09/10 07:58:04;;;;;;;10.18;8.05;;;18.00;87.50;;;;;;4948110;28;20040;-68
2021/09/10 08:00:30;;;;;;;10.25;7.50;;;18.20;86.30;;;;;;4947133;28;20077;-68
2021/09/10 08:02:55;;;;;;;10.63;7.90;;;18.20;86.60;;;;;;4946348;28;20039;-68
2021/09/10 08:05:21;;;;;;;8.32;6.35;;;18.30;86.00;;;;;;4949016;28;20035;-68
2021/09/10 08:07:47;;;;;;;12.77;7.55;;;18.40;85.10;;;;;;4951901;28;20027;-68
2021/09/10 08:10:17;;;;;;;10.23;7.50;;;18.50;84.60;;;;;;4951894;28;20447;-67
2021/09/10 08:12:47;;;;;;;10.77;7.10;;;18.60;84.80;;;;;;4957179;28;20031;-68
2021/09/10 08:15:15;;;;;;;9.90;7.32;;;18.80;84.20;;;;;;4943089;28;20125;-67
2021/09/10 08:17:42;;;;;;;9.43;6.57;;;18.90;84.10;;;;;;4949474;28;20023;-67
2021/09/10 08:20:09;;;;;;;9.50;7.40;;;19.00;83.20;;;;;;4951589;28;20035;-68
2021/09/10 08:22:35;;;;;;;9.20;6.50;;;19.10;82.70;;;;;;4948023;28;20546;-68
2021/09/10 08:25:03;;;;;;;10.43;6.38;;;19.20;81.90;;;;;;4951963;29;20028;-67
2021/09/10 08:27:29;;;;;;;;;;;19.30;82.70;;;;;;4949424;28;20035;-67
2021/09/10 08:29:55;;;;;;;9.27;6.80;;;19.40;81.10;;;;;;4959373;28;19915;-67
2021/09/10 08:32:22;;;;;;;9.23;6.70;;;19.50;80.60;;;;;;4953265;28;20122;-67
2021/09/10 08:34:48;;;;;;;8.48;6.20;;;19.50;79.80;;;;;;4955540;29;20020;-67
2021/09/10 08:37:13;;;;;;;9.35;6.97;;;19.60;79.00;;;;;;4955101;28;20039;-68
2021/09/10 08:39:39;;;;;;;10.05;7.07;;;19.60;79.40;;;;;;4957859;28;20049;-68
2021/09/10 08:42:07;;;;;;;8.75;5.90;;;19.80;78.40;;;;;;4957991;28;20039;-68
2021/09/10 08:44:34;;;;;;;11.40;7.47;;;19.90;78.80;;;;;;4960364;28;20829;-68
2021/09/10 08:47:00;;;;;;;8.38;6.20;;;19.90;78.50;;;;;;4958436;28;20034;-68
2021/09/10 08:49:25;;;;;;;7.70;6.75;;;20.00;78.30;;;;;;4956582;28;20020;-68
2021/09/10 08:51:51;;;;;;;8.60;6.43;;;20.20;78.80;;;;;;4958352;28;20011;-68
2021/09/10 08:54:18;;;;;;;9.50;7.20;;;20.20;77.30;;;;;;4949805;28;20496;-68
2021/09/10 08:56:44;;;;;;;8.98;6.75;;;20.20;76.60;;;;;;4952641;28;20039;-67
2021/09/10 08:59:18;;;;;;;8.93;7.63;;;20.10;77.00;;;;;;4956126;29;20033;-67
2021/09/10 09:01:49;;;;;;;10.02;6.97;;;20.20;76.20;;;;;;4954722;28;20043;-67
2021/09/10 09:04:15;;;;;;;9.55;6.30;;;20.20;77.50;;;;;;4963127;28;20487;-67
2021/09/10 09:06:40;;;;;;;8.88;6.85;;;20.40;76.90;;;;;;4949369;28;20097;-68
2021/09/10 09:09:06;;;;;;;8.75;6.07;;;20.50;75.60;;;;;;4948492;28;20034;-68
2021/09/10 09:11:32;;;;;;;9.35;6.50;;;20.40;75.60;;;;;;4955319;28;20019;-68
2021/09/10 09:14:02;;;;;;;10.35;6.20;;;20.50;76.00;;;;;;4952711;29;20472;-68
2021/09/10 09:16:30;;;;;;;8.98;6.55;;;20.60;74.30;;;;;;4970690;28;20035;-68
2021/09/10 09:19:00;;;;;;;;;;;20.70;73.80;;;;;;4946766;28;20424;-68
2021/09/10 09:21:31;;;;;;;6.90;6.20;;;20.60;72.90;;;;;;4954505;28;19998;-69
2021/09/10 09:24:19;;;;;;;7.05;5.53;;;20.70;73.60;;;;;;4951551;28;20149;-68
2021/09/10 09:26:47;;;;;;;7.90;5.70;;;20.90;75.50;;;;;;4949247;28;20035;-68
2021/09/10 09:29:18;;;;;;;6.22;5.60;;;21.00;73.60;;;;;;4943155;28;20030;-68
2021/09/10 09:32:06;;;;;;;10.00;5.50;;;21.10;71.70;;;;;;4947548;28;20047;-69
2021/09/10 09:34:46;;;;;;;7.90;5.32;;;21.10;71.00;;;;;;4949301;29;20366;-68
2021/09/10 09:37:13;;;;;;;10.65;6.03;;;21.20;71.70;;;;;;4957539;28;20034;-68
2021/09/10 09:39:53;;;;;;;8.35;6.22;;;21.30;71.50;;;;;;4950082;29;20070;-69
2021/09/10 09:42:31;;;;;;;11.93;6.65;;;21.30;70.10;;;;;;4967017;28;20134;-68
2021/09/10 09:45:12;;;;;;;8.52;6.03;;;21.40;71.60;;;;;;4954926;28;20031;-68
2021/09/10 09:47:38;;;;;;;8.00;6.10;;;21.50;71.30;;;;;;4954290;28;20051;-68
2021/09/10 09:50:17;;;;;;;9.65;6.28;;;21.60;71.20;;;;;;4962777;28;20027;-68
2021/09/10 09:52:43;;;;;;;9.45;6.75;;;21.60;71.10;;;;;;4957809;28;20110;-69
2021/09/10 09:55:10;;;;;;;9.32;6.22;;;21.70;70.60;;;;;;4956093;28;20369;-69
2021/09/10 09:57:36;;;;;;;8.50;6.57;;;21.70;69.90;;;;;;4959636;28;20027;-69
2021/09/10 10:00:04;;;;;;;8.10;6.53;;;21.60;69.10;;;;;;4951994;28;20038;-68
2021/09/10 10:02:30;;;;;;;8.77;6.57;;;21.60;71.10;;;;;;4957524;28;20063;-69
2021/09/10 10:04:59;;;;;;;10.13;7.15;;;21.70;71.50;;;;;;4959082;28;20500;-68
2021/09/10 10:07:46;;;;;;;8.35;6.40;;;21.80;70.80;;;;;;4952440;28;20087;-68
2021/09/10 10:10:16;;;;;;;8.35;6.60;;;21.90;70.70;;;;;;4972790;28;20026;-69
2021/09/10 10:12:46;;;;;;;8.25;6.53;;;21.80;70.00;;;;;;4961733;28;20090;-68
2021/09/10 10:15:26;;;;;;;8.90;6.53;;;21.90;68.80;;;;;;4948889;29;20028;-69
2021/09/10 10:17:54;;;;;;;9.80;6.30;;;22.00;71.10;;;;;;4959318;28;20019;-69
2021/09/10 10:20:44;;;;;;;10.15;6.28;;;22.10;70.10;;;;;;4961773;28;20031;-68
2021/09/10 10:23:48;;;;;;;24.88;18.98;;;22.30;68.60;;;;;;4954024;28;20059;-69
2021/09/10 10:26:38;;;;;;;10.50;7.28;;;22.30;68.90;;;;;;4951021;28;20047;-69
2021/09/10 10:29:08;;;;;;;8.13;6.60;;;22.40;69.40;;;;;;4955641;28;20066;-70
2021/09/10 10:31:56;;;;;;;8.00;6.28;;;22.30;69.40;;;;;;4955368;28;20101;-69
2021/09/10 10:34:22;;;;;;;9.27;6.47;;;22.50;69.10;;;;;;4944087;29;20019;-70
2021/09/10 10:36:48;;;;;;;8.65;6.10;;;22.50;68.30;;;;;;4954979;29;20019;-69
2021/09/10 10:39:15;;;;;;;9.98;6.40;;;22.50;69.20;;;;;;4956946;28;20049;-69
2021/09/10 10:41:53;;;;;;;8.93;6.35;;;22.50;68.80;;;;;;4954615;28;20023;-69
2021/09/10 10:44:34;;;;;;;9.18;6.18;;;22.60;67.30;;;;;;4968386;28;20023;-69
2021/09/10 10:47:30;;;;;;;6.88;5.75;;;22.60;67.50;;;;;;4954581;28;20789;-69
2021/09/10 10:49:56;;;;;;;6.18;5.25;;;22.70;68.70;;;;;;4954757;28;20032;-68
2021/09/10 10:52:30;;;;;;;5.55;4.90;;;22.60;67.20;;;;;;4956512;29;20038;-68
2021/09/10 10:55:17;;;;;;;6.28;5.40;;;22.70;66.30;;;;;;4953664;28;20035;-69
2021/09/10 10:57:44;;;;;;;6.25;4.65;;;22.60;65.00;;;;;;4961395;28;20042;-69
2021/09/10 11:00:28;;;;;;;6.07;4.85;;;22.60;62.20;;;;;;4955085;28;20428;-68
2021/09/10 11:03:25;;;;;;;6.88;4.88;;;22.60;63.40;;;;;;4964628;28;20039;-68
2021/09/10 11:05:54;;;;;;;7.18;4.97;;;22.70;65.00;;;;;;4954170;29;20043;-69
2021/09/10 11:08:44;;;;;;;5.75;4.72;;;22.80;63.90;;;;;;4965254;28;20034;-69
2021/09/10 11:11:10;;;;;;;6.47;5.05;;;22.90;65.40;;;;;;4954959;28;20023;-68
2021/09/10 11:13:41;;;;;;;8.05;5.22;;;23.00;65.00;;;;;;4953125;28;20167;-68
2021/09/10 11:16:08;;;;;;;6.97;4.78;;;23.10;64.60;;;;;;4953856;28;20028;-68
2021/09/10 11:18:34;;;;;;;;;;;23.10;63.50;;;;;;4951669;28;20031;-68
2021/09/10 11:21:05;;;;;;;5.70;4.53;;;23.10;61.70;;;;;;4973424;28;20324;-69
2021/09/10 11:23:34;;;;;;;7.57;4.80;;;22.90;61.80;;;;;;4951055;28;20354;-69
2021/09/10 11:26:01;;;;;;;7.30;4.80;;;23.10;61.90;;;;;;4947540;28;20031;-69
2021/09/10 11:28:32;;;;;;;5.65;4.90;;;23.00;62.40;;;;;;4962895;28;20182;-69
2021/09/10 11:30:58;;;;;;;6.93;5.10;;;23.10;60.80;;;;;;4948642;28;20028;-68
2021/09/10 11:33:24;;;;;;;5.65;4.72;;;23.10;59.70;;;;;;4954347;28;20028;-68
2021/09/10 11:35:53;;;;;;;6.75;5.00;;;23.10;61.30;;;;;;4954644;28;20101;-68
2021/09/10 11:38:20;;;;;;;6.75;4.78;;;23.20;62.70;;;;;;4952357;28;20025;-68
2021/09/10 11:40:53;;;;;;;7.65;4.88;;;23.30;60.80;;;;;;4954273;28;20149;-68
2021/09/10 11:43:35;;;;;;;7.40;4.72;;;23.10;60.60;;;;;;4968631;28;20058;-68
2021/09/10 11:46:11;;;;;;;6.28;5.03;;;23.10;61.20;;;;;;4954136;28;20166;-69
2021/09/10 11:48:47;;;;;;;5.45;4.38;;;23.10;60.20;;;;;;4952287;28;20035;-68
2021/09/10 11:51:14;;;;;;;7.00;4.90;;;23.10;58.90;;;;;;4968955;28;20106;-68
2021/09/10 11:53:46;;;;;;;5.20;4.47;;;23.10;60.80;;;;;;4953911;28;20071;-69
2021/09/10 11:56:18;;;;;;;5.38;4.20;;;23.00;60.90;;;;;;4953032;29;20022;-69
2021/09/10 11:58:51;;;;;;;6.72;4.50;;;23.10;61.50;;;;;;4946072;29;20389;-68
2021/09/10 12:01:29;;;;;;;6.45;4.35;;;23.20;60.30;;;;;;4953095;28;20019;-69
2021/09/10 12:03:56;;;;;;;;;;;23.40;61.10;;;;;;4947928;28;20042;-69
2021/09/10 12:06:28;;;;;;;4.88;4.00;;;23.50;61.70;;;;;;4955794;28;19919;-68
2021/09/10 12:09:22;;;;;;;6.20;4.50;;;23.50;59.50;;;;;;4969473;28;20027;-68
2021/09/10 12:12:23;;;;;;;4.88;4.38;;;23.60;59.20;;;;;;4956113;28;20027;-68
2021/09/10 12:14:52;;;;;;;4.97;4.32;;;23.60;60.90;;;;;;4934382;29;20031;-68
2021/09/10 12:17:24;;;;;;;8.98;4.80;;;23.80;63.00;;;;;;4943612;29;20098;-68
2021/09/10 12:19:49;;;;;;;6.55;4.80;;;23.80;61.50;;;;;;4955337;28;20102;-68
2021/09/10 12:22:33;;;;;;;5.85;4.32;;;23.80;61.10;;;;;;4951799;28;20134;-68
2021/09/10 12:25:24;;;;;;;6.38;4.45;;;23.80;60.00;;;;;;4950051;28;20518;-68
2021/09/10 12:28:03;;;;;;;6.38;4.70;;;23.80;58.20;;;;;;4957944;28;20130;-68
2021/09/10 12:30:35;;;;;;;7.68;5.05;;;23.80;60.40;;;;;;4956470;28;20039;-68
2021/09/10 12:33:02;;;;;;;5.85;4.75;;;23.70;58.80;;;;;;4953741;29;20019;-68
2021/09/10 12:35:28;;;;;;;6.05;4.50;;;23.60;58.70;;;;;;4956197;28;20035;-68
2021/09/10 12:37:59;;;;;;;6.32;4.97;;;23.70;59.90;;;;;;4954782;28;20031;-67
2021/09/10 12:40:31;;;;;;;8.48;4.75;;;23.80;60.60;;;;;;4957077;28;20020;-69
2021/09/10 12:42:58;;;;;;;5.75;4.80;;;23.70;59.40;;;;;;4952366;28;20416;-69
2021/09/10 12:45:23;;;;;;;5.55;4.95;;;23.80;59.90;;;;;;4947449;28;20102;-68
2021/09/10 12:47:50;;;;;;;5.95;5.07;;;23.70;59.90;;;;;;4953361;29;20465;-68
2021/09/10 12:50:16;;;;;;;7.40;5.18;;;23.70;57.50;;;;;;4956224;28;20035;-68